Time;durP1;ratioP1;P1;durP2;ratioP2;P2;SDS_P1;SDS_P2;PMS_P1;PMS_P2;Temp;Humidity;BMP_temperature;BMP_pressure;BME280_temperature;BME280_humidity;BME280_pressure;Samples;Min_cycle;Max_cycle;Signal;HPM_P1;HPM_P2
2023/05/22 00:00:22;;;;;;;6.65;4.68;;;;;;;20.46;67.93;101681.78;6035516;29;20927;-71
2023/05/22 00:03:43;;;;;;;4.40;4.00;;;;;;;20.43;67.80;101682.13;6045219;29;20222;-71
2023/05/22 00:07:05;;;;;;;3.80;3.50;;;;;;;20.50;67.84;101684.00;6055844;29;20241;-71
2023/05/22 00:10:26;;;;;;;4.45;4.05;;;;;;;20.39;67.74;101669.84;6040491;29;20252;-72
2023/05/22 00:13:48;;;;;;;4.55;4.15;;;;;;;20.42;67.63;101678.53;6032096;29;20273;-71
2023/05/22 00:17:13;;;;;;;4.93;4.45;;;;;;;20.44;67.43;101676.47;6053977;29;20237;-71
2023/05/22 00:20:37;;;;;;;4.82;4.43;;;;;;;20.38;67.30;101679.94;6025707;29;20238;-71
2023/05/22 00:23:58;;;;;;;4.25;3.85;;;;;;;20.37;67.41;101672.78;6043772;29;20313;-71
2023/05/22 00:27:19;;;;;;;5.18;4.78;;;;;;;20.30;67.16;101669.03;6055475;29;20245;-72
2023/05/22 00:30:41;;;;;;;3.40;3.10;;;;;;;20.28;67.08;101670.25;6025329;29;20528;-71
2023/05/22 00:34:02;;;;;;;4.32;3.88;;;;;;;20.25;67.01;101670.63;6046324;29;20245;-72
2023/05/22 00:37:24;;;;;;;3.95;3.63;;;;;;;20.21;67.24;101675.59;6059142;29;20233;-72
2023/05/22 00:40:45;;;;;;;3.95;3.53;;;;;;;20.13;67.46;101670.13;6038267;29;20242;-72
2023/05/22 00:44:06;;;;;;;8.07;4.85;;;;;;;20.13;67.25;101667.38;6043390;29;20261;-72
2023/05/22 00:47:29;;;;;;;6.18;4.78;;;;;;;20.17;67.31;101671.47;6057882;29;20264;-72
2023/05/22 00:50:51;;;;;;;4.57;4.20;;;;;;;20.10;67.34;101667.75;6051497;29;20237;-71
2023/05/22 00:54:12;;;;;;;5.38;4.97;;;;;;;20.06;67.43;101666.41;6031606;29;20268;-71
2023/05/22 00:57:33;;;;;;;6.25;3.55;;;;;;;20.03;67.45;101668.63;6060943;29;20257;-72
2023/05/22 01:00:55;;;;;;;3.55;3.25;;;;;;;19.99;67.51;101665.41;6046325;29;20229;-71
2023/05/22 01:04:18;;;;;;;4.10;3.72;;;;;;;20.04;67.45;101663.00;6047855;29;20230;-72
2023/05/22 01:07:39;;;;;;;4.75;4.30;;;;;;;19.99;67.36;101667.28;6061295;29;20237;-72
2023/05/22 01:11:11;;;;;;;5.20;4.50;;;;;;;19.86;67.98;101663.22;6043955;29;20631;-72
2023/05/22 01:14:40;;;;;;;4.50;3.72;;;;;;;19.88;67.84;101666.63;6052015;29;20320;-71
2023/05/22 01:18:11;;;;;;;4.53;4.13;;;;;;;19.84;67.93;101656.22;6062739;29;20605;-71
2023/05/22 01:21:44;;;;;;;4.43;4.03;;;;;;;19.76;68.05;101657.09;6060221;29;20248;-70
2023/05/22 01:25:41;;;;;;;4.53;4.13;;;;;;;19.73;67.80;101651.16;6047774;29;20240;-70
2023/05/22 01:29:14;;;;;;;5.72;4.38;;;;;;;19.72;67.83;101650.28;6036890;29;20570;-70
2023/05/22 01:32:37;;;;;;;4.00;3.55;;;;;;;19.61;68.09;101645.19;6057958;29;20324;-70
2023/05/22 01:36:01;;;;;;;4.95;4.50;;;;;;;19.64;68.42;101641.25;6037562;29;20611;-71
2023/05/22 01:39:23;;;;;;;4.38;3.28;;;;;;;19.57;68.38;101648.44;6046133;29;20233;-71
2023/05/22 01:42:46;;;;;;;4.20;3.80;;;;;;;19.55;68.38;101647.75;6054917;29;20232;-73
2023/05/22 01:46:07;;;;;;;4.50;4.07;;;;;;;19.61;68.37;101644.34;6049268;29;20233;-71
2023/05/22 01:49:30;;;;;;;3.35;3.05;;;;;;;19.43;68.49;101652.78;6040288;29;20234;-71
2023/05/22 01:52:58;;;;;;;4.88;4.45;;;;;;;19.50;68.65;101652.94;6029338;29;20256;-71
2023/05/22 01:56:29;;;;;;;4.10;3.80;;;;;;;19.47;68.58;101654.13;6059588;29;20312;-71
2023/05/22 01:59:55;;;;;;;4.28;3.97;;;;;;;19.40;68.76;101650.38;6023142;29;20237;-71
2023/05/22 02:03:21;;;;;;;4.93;4.05;;;;;;;19.38;68.85;101646.94;6033804;29;20238;-70
2023/05/22 02:06:46;;;;;;;5.28;4.72;;;;;;;19.34;68.83;101653.81;6045200;29;20229;-72
2023/05/22 02:10:10;;;;;;;5.22;4.32;;;;;;;19.40;68.74;101652.28;6048540;29;20236;-71
2023/05/22 02:13:32;;;;;;;4.35;3.40;;;;;;;19.37;68.68;101647.13;6034917;29;20234;-71
2023/05/22 02:16:55;;;;;;;3.88;3.47;;;;;;;19.35;68.76;101644.59;6043168;29;20568;-70
2023/05/22 02:20:16;;;;;;;4.53;4.13;;;;;;;19.31;68.79;101636.88;6056322;29;20629;-70
2023/05/22 02:23:39;;;;;;;4.57;4.05;;;;;;;19.34;68.66;101621.00;6053892;29;20257;-70
2023/05/22 02:27:00;;;;;;;4.35;3.53;;;;;;;19.30;68.37;101626.94;6046414;29;20229;-71
2023/05/22 02:30:21;;;;;;;4.63;4.05;;;;;;;19.25;68.60;101627.50;6028274;29;20321;-71
2023/05/22 02:33:44;;;;;;;4.28;3.88;;;;;;;19.21;68.69;101620.66;6035235;29;20522;-70
2023/05/22 02:37:06;;;;;;;9.60;4.32;;;;;;;19.17;68.73;101620.13;6058369;29;20527;-71
2023/05/22 02:40:28;;;;;;;6.35;4.38;;;;;;;19.20;68.59;101620.81;6046468;29;21976;-72
2023/05/22 02:43:49;;;;;;;4.18;3.65;;;;;;;19.25;68.69;101619.28;6050489;29;20579;-71
2023/05/22 02:47:09;;;;;;;4.38;3.70;;;;;;;19.26;68.54;101612.78;6053105;29;20332;-69
2023/05/22 02:50:30;;;;;;;4.47;4.05;;;;;;;19.20;68.50;101618.94;6049787;29;20229;-72
2023/05/22 02:53:52;;;;;;;3.30;3.10;;;;;;;19.08;68.26;101610.25;6051880;29;20237;-70
2023/05/22 02:57:15;;;;;;;3.67;3.22;;;;;;;19.17;68.43;101609.19;6049779;29;20232;-71
2023/05/22 03:00:36;;;;;;;4.03;3.55;;;;;;;19.17;68.37;101611.06;6042769;29;20241;-70
2023/05/22 03:03:57;;;;;;;3.83;3.53;;;;;;;19.12;67.92;101608.88;6053559;29;20280;-70
2023/05/22 03:07:19;;;;;;;4.80;4.40;;;;;;;19.09;68.27;101598.28;6063549;29;20236;-70
2023/05/22 03:10:39;;;;;;;5.20;4.55;;;;;;;19.10;67.98;101608.22;6034743;29;20241;-70
2023/05/22 03:14:02;;;;;;;5.43;4.80;;;;;;;19.19;67.65;101594.53;6052281;29;20233;-71
2023/05/22 03:17:23;;;;;;;5.20;4.30;;;;;;;19.18;67.26;101596.38;6054071;29;20808;-71
2023/05/22 03:20:44;;;;;;;4.10;3.70;;;;;;;19.23;66.96;101596.75;6051054;29;20245;-70
2023/05/22 03:24:06;;;;;;;4.53;4.18;;;;;;;19.20;66.90;101596.22;6056858;29;20229;-71
2023/05/22 03:27:27;;;;;;;3.30;3.00;;;;;;;19.23;66.61;101599.47;6058762;29;20508;-71
2023/05/22 03:30:50;;;;;;;3.88;3.58;;;;;;;19.28;66.31;101599.78;6050648;29;20229;-71
2023/05/22 03:34:16;;;;;;;5.50;4.20;;;;;;;19.29;66.10;101590.56;6041422;29;20350;-71
2023/05/22 03:37:40;;;;;;;3.50;3.20;;;;;;;19.19;66.10;101594.53;6052093;29;20610;-71
2023/05/22 03:41:01;;;;;;;6.22;4.35;;;;;;;19.24;65.98;101590.22;6046915;29;20535;-70
2023/05/22 03:44:22;;;;;;;4.13;3.83;;;;;;;19.25;65.77;101589.22;6053716;29;20324;-70
2023/05/22 03:47:44;;;;;;;7.13;5.90;;;;;;;19.28;65.62;101587.97;6052425;29;20275;-70
2023/05/22 03:51:05;;;;;;;5.78;4.15;;;;;;;19.18;65.80;101585.47;6034740;29;20232;-70
2023/05/22 03:54:27;;;;;;;3.75;3.53;;;;;;;19.17;65.67;101584.59;6047686;29;20257;-71
2023/05/22 03:57:48;;;;;;;5.70;3.83;;;;;;;19.25;65.69;101585.63;6064852;29;20241;-71
2023/05/22 04:01:10;;;;;;;5.47;4.25;;;;;;;19.28;65.35;101593.44;6046737;29;20237;-71
2023/05/22 04:04:37;;;;;;;3.53;3.22;;;;;;;19.33;65.20;101591.91;6046659;29;20237;-70
2023/05/22 04:07:58;;;;;;;5.90;5.15;;;;;;;19.40;64.78;101582.00;6062720;29;20242;-71
2023/05/22 04:11:19;;;;;;;6.32;5.72;;;;;;;19.47;64.75;101590.34;6065747;29;20540;-71
2023/05/22 04:14:40;;;;;;;4.80;4.38;;;;;;;19.50;64.31;101598.22;6045659;29;20947;-71
2023/05/22 04:18:01;;;;;;;6.15;5.57;;;;;;;19.46;64.29;101588.66;6059913;29;20229;-70
2023/05/22 04:21:24;;;;;;;4.50;4.10;;;;;;;19.46;64.16;101585.94;6061316;29;20782;-70
2023/05/22 04:24:47;;;;;;;5.93;4.88;;;;;;;19.49;64.12;101588.28;6042628;29;20233;-70
2023/05/22 04:28:08;;;;;;;4.35;3.95;;;;;;;19.58;63.93;101579.03;6062608;29;20315;-72
2023/05/22 04:31:29;;;;;;;6.50;3.95;;;;;;;19.67;63.76;101578.81;6063075;29;20241;-71
2023/05/22 04:34:50;;;;;;;3.50;3.20;;;;;;;19.62;63.14;101572.19;6041922;29;20284;-72
2023/05/22 04:38:12;;;;;;;4.38;4.03;;;;;;;19.70;62.86;101578.47;6051344;29;20229;-72
2023/05/22 04:41:33;;;;;;;8.00;3.88;;;;;;;19.69;62.60;101575.91;6062387;29;20228;-71
2023/05/22 04:44:56;;;;;;;3.42;2.88;;;;;;;19.76;62.20;101582.38;6051146;29;20572;-71
2023/05/22 04:48:18;;;;;;;3.25;2.95;;;;;;;19.89;61.89;101578.03;6051073;29;20238;-69
2023/05/22 04:51:39;;;;;;;3.78;3.42;;;;;;;19.86;61.60;101580.25;6059430;29;20237;-70
2023/05/22 04:55:01;;;;;;;3.67;3.38;;;;;;;19.91;61.28;101584.19;6048596;29;20904;-71
2023/05/22 04:58:23;;;;;;;5.13;3.03;;;;;;;19.98;61.04;101583.47;6028288;29;20696;-71
2023/05/22 05:01:46;;;;;;;3.60;3.25;;;;;;;19.93;61.22;101576.63;6043293;29;20229;-71
2023/05/22 05:05:10;;;;;;;8.57;3.45;;;;;;;20.11;60.68;101576.34;6042472;29;21734;-70
2023/05/22 05:08:32;;;;;;;4.88;3.72;;;;;;;20.17;59.97;101569.31;6038381;29;20246;-70
2023/05/22 05:11:55;;;;;;;3.13;2.83;;;;;;;20.27;60.13;101569.97;6047167;29;20245;-72
2023/05/22 05:15:16;;;;;;;4.13;3.55;;;;;;;20.36;59.21;101566.13;6029080;29;20364;-69
2023/05/22 05:18:36;;;;;;;3.38;3.08;;;;;;;20.43;59.07;101576.16;6051749;29;20287;-71
2023/05/22 05:21:57;;;;;;;3.00;2.65;;;;;;;20.56;58.61;101567.31;6022759;29;21104;-71
2023/05/22 05:25:19;;;;;;;2.97;2.72;;;;;;;20.53;58.74;101567.69;6049992;29;20240;-70
2023/05/22 05:28:42;;;;;;;3.08;2.88;;;;;;;20.62;58.47;101572.06;6040683;29;20382;-70
2023/05/22 05:32:03;;;;;;;4.10;3.38;;;;;;;20.58;57.89;101571.59;6048486;29;20233;-71
2023/05/22 05:35:39;;;;;;;2.75;2.42;;;;;;;20.66;57.72;101578.88;6051252;29;20233;-71
2023/05/22 05:39:04;;;;;;;3.55;3.22;;;;;;;20.80;57.54;101575.31;6047639;29;20229;-71
2023/05/22 05:42:28;;;;;;;3.90;2.67;;;;;;;20.81;57.20;101568.81;6038608;29;20241;-71
2023/05/22 05:45:53;;;;;;;5.65;2.65;;;;;;;20.95;57.07;101572.59;6037373;29;20290;-71
2023/05/22 05:49:15;;;;;;;3.78;3.40;;;;;;;21.07;56.70;101561.03;6037019;29;20299;-71
2023/05/22 05:52:37;;;;;;;5.15;3.33;;;;;;;21.10;56.42;101563.41;6046444;29;20240;-72
2023/05/22 05:56:05;;;;;;;3.67;2.88;;;;;;;21.27;56.07;101555.84;6051866;29;20518;-72
2023/05/22 05:59:27;;;;;;;2.42;2.20;;;;;;;21.35;56.05;101556.63;6051972;29;20233;-71
2023/05/22 06:03:10;;;;;;;3.25;2.95;;;;;;;21.20;55.97;101550.28;6059967;29;20540;-71
2023/05/22 06:06:50;;;;;;;4.20;3.22;;;;;;;21.39;55.55;101559.81;6058140;29;20504;-72
2023/05/22 06:10:22;;;;;;;4.55;3.40;;;;;;;21.62;55.20;101548.72;6034384;29;20567;-71
2023/05/22 06:13:50;;;;;;;3.90;3.22;;;;;;;21.57;55.00;101545.72;6040328;29;22474;-71
2023/05/22 06:17:11;;;;;;;3.83;2.45;;;;;;;21.68;54.58;101547.94;6056120;29;20232;-71
2023/05/22 06:20:35;;;;;;;5.07;3.00;;;;;;;21.68;54.78;101550.69;6038997;29;20233;-72
2023/05/22 06:23:57;;;;;;;3.55;3.25;;;;;;;21.73;54.87;101540.00;6053543;29;20245;-71
2023/05/22 06:27:19;;;;;;;3.70;2.70;;;;;;;21.91;54.97;101548.69;6053140;29;20494;-71
2023/05/22 06:30:40;;;;;;;3.17;2.88;;;;;;;21.88;54.49;101543.59;6054628;29;20245;-71
2023/05/22 06:34:04;;;;;;;2.38;2.17;;;;;;;21.91;54.39;101551.44;6056847;29;20233;-72
2023/05/22 06:37:26;;;;;;;3.17;2.90;;;;;;;21.89;54.25;101556.28;6043670;29;20780;-72
2023/05/22 06:40:48;;;;;;;3.45;2.50;;;;;;;21.97;54.01;101559.75;6014502;29;20249;-71
2023/05/22 06:44:12;;;;;;;5.75;2.28;;;;;;;22.22;54.19;101565.75;6043805;29;20642;-71
2023/05/22 06:47:36;;;;;;;3.08;2.15;;;;;;;22.27;54.08;101564.13;6041789;29;20233;-71
2023/05/22 06:50:57;;;;;;;1.98;1.55;;;;;;;22.53;54.13;101566.25;6041366;29;20583;-70
2023/05/22 06:54:21;;;;;;;2.72;2.03;;;;;;;22.46;53.21;101559.88;6031107;29;20263;-71
2023/05/22 06:57:45;;;;;;;4.80;2.97;;;;;;;22.59;53.51;101568.25;6049378;29;20895;-71
2023/05/22 07:01:06;;;;;;;7.32;3.80;;;;;;;22.79;53.13;101565.69;6050995;29;20237;-69
2023/05/22 07:04:33;;;;;;;2.13;2.03;;;;;;;22.53;52.93;101574.50;6051859;29;20612;-71
2023/05/22 07:08:07;;;;;;;2.63;2.08;;;;;;;22.60;52.97;101577.34;6064685;29;20237;-71
2023/05/22 07:11:29;;;;;;;2.00;1.77;;;;;;;22.76;52.26;101577.09;6062237;29;21024;-70
2023/05/22 07:14:50;;;;;;;2.88;2.67;;;;;;;23.14;52.06;101574.84;6039688;29;20320;-72
2023/05/22 07:18:12;;;;;;;2.65;2.42;;;;;;;22.85;51.41;101570.38;6049213;29;20691;-72
2023/05/22 07:21:35;;;;;;;2.53;2.33;;;;;;;23.03;50.81;101570.72;6062138;29;20533;-71
2023/05/22 07:24:58;;;;;;;2.75;2.28;;;;;;;23.47;51.23;101564.91;6043085;29;20604;-69
2023/05/22 07:28:25;;;;;;;2.83;2.63;;;;;;;23.67;50.81;101563.13;6035868;29;20260;-68
2023/05/22 07:31:56;;;;;;;5.22;4.70;;;;;;;23.85;49.91;101563.41;6059060;29;20252;-69
2023/05/22 07:35:19;;;;;;;4.50;2.55;;;;;;;23.87;49.39;101565.94;6019876;29;21052;-66
2023/05/22 07:38:40;;;;;;;3.05;2.05;;;;;;;23.71;50.00;101553.41;6031860;29;20241;-68
2023/05/22 07:42:03;;;;;;;3.13;2.08;;;;;;;23.65;49.10;101552.34;6043051;29;20230;-68
2023/05/22 07:45:28;;;;;;;3.28;2.97;;;;;;;24.25;49.21;101548.75;6035023;29;20237;-67
2023/05/22 07:48:51;;;;;;;2.42;2.22;;;;;;;24.34;48.54;101546.63;6040320;29;20596;-68
2023/05/22 07:52:12;;;;;;;3.72;2.05;;;;;;;24.14;48.21;101546.59;6046390;29;20265;-67
2023/05/22 07:55:33;;;;;;;2.28;2.08;;;;;;;24.27;47.70;101545.75;6043141;29;20241;-67
2023/05/22 07:58:56;;;;;;;2.55;2.03;;;;;;;24.27;47.81;101543.88;6047706;29;20266;-68
2023/05/22 08:02:19;;;;;;;3.20;2.53;;;;;;;24.24;47.62;101535.19;6046823;29;20241;-66
2023/05/22 08:05:40;;;;;;;2.38;2.17;;;;;;;24.40;47.57;101529.25;6049423;29;20237;-67
2023/05/22 08:09:03;;;;;;;2.35;1.95;;;;;;;24.78;48.25;101533.13;6059866;29;20797;-69
2023/05/22 08:12:24;;;;;;;2.63;2.05;;;;;;;24.83;47.46;101530.56;6068493;29;20225;-68
2023/05/22 08:15:45;;;;;;;2.30;2.10;;;;;;;24.38;46.57;101534.13;6045397;29;20237;-69
2023/05/22 08:19:07;;;;;;;1.95;1.77;;;;;;;24.75;47.25;101540.97;6038587;29;20241;-67
2023/05/22 08:22:29;;;;;;;2.38;1.90;;;;;;;25.12;47.01;101527.34;6051368;29;20240;-68
2023/05/22 08:25:50;;;;;;;2.90;2.58;;;;;;;24.92;47.32;101531.19;6015708;29;20493;-69
2023/05/22 08:29:11;;;;;;;4.50;2.40;;;;;;;25.29;46.79;101527.72;6041130;29;20237;-69
2023/05/22 08:32:32;;;;;;;3.83;2.13;;;;;;;25.07;47.36;101534.56;6055005;29;20237;-67
2023/05/22 08:35:54;;;;;;;2.83;1.80;;;;;;;25.17;46.24;101523.94;6032608;29;20249;-68
2023/05/22 08:39:17;;;;;;;3.85;2.85;;;;;;;25.40;45.44;101521.53;6054186;29;20332;-69
2023/05/22 08:42:38;;;;;;;2.15;2.00;;;;;;;25.27;45.68;101524.31;6060652;29;20317;-70
2023/05/22 08:46:02;;;;;;;1.98;1.80;;;;;;;25.33;45.09;101516.03;6021054;29;20237;-69
2023/05/22 08:49:24;;;;;;;1.92;1.50;;;;;;;25.30;45.54;101510.94;6059861;29;20586;-69
2023/05/22 08:52:51;;;;;;;2.60;2.13;;;;;;;24.99;45.87;101510.78;6066591;29;20240;-68
2023/05/22 08:56:12;;;;;;;2.33;2.13;;;;;;;25.51;45.39;101511.75;6043718;29;20233;-67
2023/05/22 08:59:35;;;;;;;2.17;2.08;;;;;;;25.57;44.73;101502.59;6049265;29;20229;-68
2023/05/22 09:02:57;;;;;;;1.85;1.75;;;;;;;25.85;45.02;101511.38;6047643;29;20662;-68
2023/05/22 09:06:18;;;;;;;2.15;1.75;;;;;;;25.69;44.59;101498.94;6037149;29;20233;-68
2023/05/22 09:09:40;;;;;;;2.10;2.00;;;;;;;25.67;44.42;101503.84;6048539;29;20247;-68
2023/05/22 09:13:03;;;;;;;1.90;1.70;;;;;;;25.78;43.49;101494.00;6051390;29;20299;-68
2023/05/22 09:16:25;;;;;;;2.95;2.13;;;;;;;25.63;43.90;101494.28;6051800;29;20348;-69
2023/05/22 09:19:47;;;;;;;2.33;2.15;;;;;;;25.74;43.43;101487.22;6043742;29;20248;-69
2023/05/22 09:23:13;;;;;;;2.95;2.45;;;;;;;25.79;43.36;101501.22;6054632;29;20237;-68
2023/05/22 09:26:35;;;;;;;1.77;1.63;;;;;;;25.50;43.26;101487.97;6053826;29;20316;-69
2023/05/22 09:29:57;;;;;;;2.88;2.63;;;;;;;25.84;43.12;101493.13;6040785;29;20237;-69
2023/05/22 09:33:18;;;;;;;2.75;2.15;;;;;;;25.69;42.95;101479.59;6046942;29;20783;-70
2023/05/22 09:36:39;;;;;;;7.05;1.80;;;;;;;26.27;42.18;101480.31;6064770;29;20319;-68
2023/05/22 09:40:04;;;;;;;2.20;2.03;;;;;;;26.60;41.57;101472.59;6044776;29;20229;-71
2023/05/22 09:43:27;;;;;;;4.20;2.22;;;;;;;26.34;41.35;101470.06;6050590;29;20229;-69
2023/05/22 09:46:47;;;;;;;2.47;1.98;;;;;;;27.00;41.57;101467.53;6049943;29;20236;-70
2023/05/22 09:50:09;;;;;;;2.40;2.20;;;;;;;27.41;41.32;101475.22;6050572;29;20687;-70
2023/05/22 09:53:32;;;;;;;3.33;2.17;;;;;;;27.12;40.19;101462.09;6038624;29;20233;-69
2023/05/22 09:56:57;;;;;;;1.90;1.80;;;;;;;27.00;40.38;101467.53;6053932;29;20252;-70
2023/05/22 10:00:20;;;;;;;6.38;2.53;;;;;;;26.91;40.76;101455.91;6047809;29;20244;-70
2023/05/22 10:03:42;;;;;;;2.25;2.15;;;;;;;26.77;40.65;101459.06;6053689;29;20524;-70
2023/05/22 10:07:04;;;;;;;2.13;2.03;;;;;;;27.21;41.02;101461.56;6059339;29;20237;-69
2023/05/22 10:10:25;;;;;;;2.72;2.33;;;;;;;27.33;40.17;101462.47;6051164;29;20229;-69
2023/05/22 10:13:47;;;;;;;4.30;2.15;;;;;;;27.30;40.50;101446.34;6054434;29;20241;-69
2023/05/22 10:17:11;;;;;;;3.92;2.55;;;;;;;27.71;40.42;101440.06;6065675;29;20273;-70
2023/05/22 10:20:32;;;;;;;3.65;2.15;;;;;;;27.78;40.32;101443.59;6056848;29;20509;-70
2023/05/22 10:23:54;;;;;;;3.72;2.70;;;;;;;27.43;39.67;101448.94;6052890;29;20965;-69
2023/05/22 10:27:15;;;;;;;3.00;1.75;;;;;;;28.06;39.87;101427.19;6063850;29;20236;-70
2023/05/22 10:30:44;;;;;;;6.95;4.28;;;;;;;28.06;38.85;101427.19;6048523;29;20244;-71
2023/05/22 10:34:38;;;;;;;2.50;2.30;;;;;;;28.17;38.56;101417.19;6049818;29;20260;-70
2023/05/22 10:38:14;;;;;;;2.05;1.85;;;;;;;28.94;37.95;101418.81;6062350;29;20277;-70
2023/05/22 10:41:35;;;;;;;2.22;1.92;;;;;;;28.81;37.28;101416.31;6059234;29;20233;-70
2023/05/22 10:44:56;;;;;;;2.35;1.80;;;;;;;28.63;37.66;101414.50;6037219;29;20241;-70
2023/05/22 10:48:21;;;;;;;1.95;1.67;;;;;;;28.89;37.49;101408.44;6034580;29;20727;-69
2023/05/22 10:51:44;;;;;;;2.70;1.65;;;;;;;29.64;36.52;101409.22;6057831;29;20229;-71
2023/05/22 10:55:10;;;;;;;3.92;2.15;;;;;;;29.44;35.89;101407.97;6055195;29;20275;-72
2023/05/22 10:58:32;;;;;;;2.65;2.22;;;;;;;28.65;36.93;101405.91;6040821;29;20255;-71
2023/05/22 11:02:00;;;;;;;3.00;2.70;;;;;;;28.69;37.39;101398.78;6058557;29;20233;-73
2023/05/22 11:05:35;;;;;;;1.90;1.52;;;;;;;29.23;37.04;101390.03;6039730;29;20608;-73
2023/05/22 11:08:59;;;;;;;2.33;1.85;;;;;;;29.37;36.57;101385.91;6054803;29;20264;-71
2023/05/22 11:12:26;;;;;;;2.67;2.05;;;;;;;29.13;36.65;101395.34;6066920;29;20237;-72
2023/05/22 11:15:48;;;;;;;2.38;2.20;;;;;;;29.16;36.38;101378.25;6045150;29;20240;-73
2023/05/22 11:19:10;;;;;;;2.45;2.25;;;;;;;29.12;36.27;101385.34;6059939;29;20233;-72
2023/05/22 11:22:33;;;;;;;4.40;1.98;;;;;;;29.89;36.31;101373.56;6071594;29;20225;-73
2023/05/22 11:25:55;;;;;;;3.05;2.25;;;;;;;30.11;35.69;101370.88;6050058;29;20234;-72
2023/05/22 11:29:17;;;;;;;2.90;1.70;;;;;;;29.44;36.07;101366.28;6045691;29;20249;-72
2023/05/22 11:32:43;;;;;;;4.75;3.38;;;;;;;30.36;35.40;101373.28;6051688;29;20244;-72
2023/05/22 11:36:04;;;;;;;3.88;1.83;;;;;;;30.69;35.00;101362.06;6038517;29;20316;-72
2023/05/22 11:39:25;;;;;;;3.10;2.10;;;;;;;30.85;35.21;101354.78;6047893;29;20534;-72
2023/05/22 11:42:48;;;;;;;4.40;2.08;;;;;;;30.70;34.58;101361.84;6066198;29;23005;-72
2023/05/22 11:46:11;;;;;;;2.83;1.85;;;;;;;29.91;35.10;101354.72;6040936;29;20253;-71
2023/05/22 11:49:31;;;;;;;1.98;1.88;;;;;;;29.30;36.12;101351.00;6047153;29;20876;-71
2023/05/22 11:52:55;;;;;;;2.13;1.92;;;;;;;29.35;35.96;101349.19;6064660;29;20237;-71
2023/05/22 11:56:20;;;;;;;3.97;2.60;;;;;;;29.49;36.19;101349.72;6059207;29;20735;-73
2023/05/22 11:59:45;;;;;;;3.28;2.28;;;;;;;30.25;36.22;101332.44;6039122;29;20237;-73
2023/05/22 12:03:06;;;;;;;2.50;2.20;;;;;;;29.69;35.28;101338.97;6051922;29;20954;-73
2023/05/22 12:06:27;;;;;;;2.85;2.65;;;;;;;29.89;35.71;101337.41;6062482;29;20588;-72
2023/05/22 12:09:48;;;;;;;3.42;2.03;;;;;;;30.62;35.16;101337.19;6055439;29;20324;-72
2023/05/22 12:13:09;;;;;;;2.47;1.90;;;;;;;30.77;34.11;101328.22;6062589;29;20236;-72
2023/05/22 12:16:36;;;;;;;1.83;1.67;;;;;;;30.78;34.71;101329.91;6063851;29;20229;-73
2023/05/22 12:19:57;;;;;;;2.17;1.98;;;;;;;30.83;34.35;101320.78;6052154;29;20241;-73
2023/05/22 12:23:22;;;;;;;2.35;2.15;;;;;;;30.35;33.46;101324.28;6057722;29;20241;-73
2023/05/22 12:26:49;;;;;;;5.53;2.13;;;;;;;30.32;34.70;101325.63;6062023;29;20241;-73
2023/05/22 12:30:13;;;;;;;2.15;2.05;;;;;;;30.26;35.42;101323.00;6044223;29;20535;-72
2023/05/22 12:33:35;;;;;;;5.13;1.92;;;;;;;30.27;34.25;101324.69;6050597;29;20276;-73
2023/05/22 12:36:56;;;;;;;2.22;2.03;;;;;;;30.40;34.16;101321.56;6058894;29;21425;-69
2023/05/22 12:40:17;;;;;;;6.25;2.40;;;;;;;30.36;34.29;101323.16;6034250;29;20245;-71
2023/05/22 12:43:39;;;;;;;1.85;1.65;;;;;;;30.11;33.79;101309.69;6053122;29;20324;-70
2023/05/22 12:47:00;;;;;;;4.07;2.10;;;;;;;30.09;34.30;101309.09;6058413;29;20240;-71
2023/05/22 12:50:22;;;;;;;2.55;1.60;;;;;;;30.69;33.52;101295.25;6049109;29;20237;-70
2023/05/22 12:53:43;;;;;;;3.63;1.88;;;;;;;30.36;33.50;101296.19;6056293;29;20291;-71
2023/05/22 12:57:04;;;;;;;2.13;1.88;;;;;;;32.43;30.89;101288.09;6051842;29;20233;-71
2023/05/22 13:00:25;;;;;;;2.35;1.65;;;;;;;33.43;29.87;101275.66;6043152;29;20274;-71
2023/05/22 13:03:47;;;;;;;2.38;1.60;;;;;;;35.25;28.26;101282.63;6052269;29;20249;-72
2023/05/22 13:07:09;;;;;;;3.13;2.90;;;;;;;35.48;27.01;101278.31;6057493;29;20587;-71
2023/05/22 13:10:29;;;;;;;3.90;2.75;;;;;;;34.65;27.68;101280.09;6048887;29;20237;-71
2023/05/22 13:13:50;;;;;;;2.95;2.70;;;;;;;32.47;30.12;101268.88;6050030;29;20237;-72
2023/05/22 13:17:11;;;;;;;4.82;2.40;;;;;;;33.18;29.32;101264.44;6054279;29;20508;-72
2023/05/22 13:20:31;;;;;;;3.80;2.28;;;;;;;35.60;27.44;101259.97;6041491;29;20237;-71
2023/05/22 13:23:55;;;;;;;6.05;2.55;;;;;;;34.88;26.91;101257.03;6051282;29;20331;-71
2023/05/22 13:27:16;;;;;;;3.53;2.70;;;;;;;34.56;27.54;101243.44;6059886;29;20320;-71
2023/05/22 13:30:37;;;;;;;3.88;3.58;;;;;;;34.54;27.41;101252.13;6047077;29;20229;-71
2023/05/22 13:33:58;;;;;;;3.25;2.95;;;;;;;34.22;27.58;101246.03;6049046;29;20233;-72
2023/05/22 13:37:19;;;;;;;4.07;3.67;;;;;;;35.20;27.33;101243.41;6064363;29;20229;-69
2023/05/22 13:40:41;;;;;;;3.08;2.80;;;;;;;32.54;28.50;101236.81;6051366;29;20623;-72
2023/05/22 13:44:02;;;;;;;3.25;3.00;;;;;;;31.32;29.52;101224.97;6048763;29;20241;-71
2023/05/22 13:47:24;;;;;;;2.03;1.85;;;;;;;31.26;29.98;101221.28;6062717;29;20244;-71
2023/05/22 13:50:45;;;;;;;2.47;2.28;;;;;;;31.15;30.52;101213.94;6047545;29;20237;-72
2023/05/22 13:54:06;;;;;;;2.95;2.72;;;;;;;30.76;30.86;101209.56;6051894;29;20238;-72
2023/05/22 13:57:28;;;;;;;3.85;2.47;;;;;;;31.15;30.52;101201.94;6061667;29;20221;-72
2023/05/22 14:00:49;;;;;;;4.93;2.90;;;;;;;30.58;30.48;101204.34;6049616;29;20233;-72
2023/05/22 14:04:10;;;;;;;3.10;2.13;;;;;;;30.27;30.85;101202.25;6037401;29;20248;-72
2023/05/22 14:07:32;;;;;;;2.92;2.47;;;;;;;30.84;30.80;101203.53;6057871;29;20225;-73
2023/05/22 14:10:52;;;;;;;2.80;2.20;;;;;;;30.82;30.23;101197.38;6028537;29;20241;-72
2023/05/22 14:14:15;;;;;;;5.18;1.95;;;;;;;30.12;30.88;101202.03;6047044;29;20269;-71
2023/05/22 14:17:37;;;;;;;1.90;1.63;;;;;;;29.92;30.89;101206.19;6050242;29;20237;-72
2023/05/22 14:20:58;;;;;;;4.20;1.80;;;;;;;30.15;31.03;101188.44;6047079;29;20256;-71
2023/05/22 14:24:18;;;;;;;2.22;2.13;;;;;;;29.82;30.96;101182.97;6048983;29;20233;-72
2023/05/22 14:27:39;;;;;;;2.33;2.13;;;;;;;29.48;31.50;101170.13;6051704;29;20237;-72
2023/05/22 14:31:02;;;;;;;1.50;1.27;;;;;;;29.10;30.99;101170.88;6044099;29;20339;-71
2023/05/22 14:34:22;;;;;;;2.72;2.25;;;;;;;28.92;31.35;101162.75;6050198;29;20329;-70
2023/05/22 14:37:43;;;;;;;1.60;1.50;;;;;;;28.66;31.16;101161.44;6069827;29;20233;-72
2023/05/22 14:41:04;;;;;;;6.03;2.17;;;;;;;28.56;32.10;101155.66;6052357;29;20237;-72
2023/05/22 14:44:24;;;;;;;4.38;3.05;;;;;;;28.26;32.59;101161.44;6049665;29;20256;-73
2023/05/22 14:47:47;;;;;;;2.45;2.10;;;;;;;28.26;33.13;101161.44;6064064;29;20245;-74
2023/05/22 14:51:08;;;;;;;2.22;2.13;;;;;;;28.07;32.62;101157.13;6054335;29;20237;-73
2023/05/22 14:54:30;;;;;;;4.32;3.92;;;;;;;27.83;33.08;101155.44;6051367;29;20518;-73
2023/05/22 14:57:51;;;;;;;3.50;3.20;;;;;;;27.62;32.94;101161.56;6037592;29;20328;-69
2023/05/22 15:01:12;;;;;;;4.20;3.78;;;;;;;27.56;33.83;101168.09;6053949;29;21008;-73
2023/05/22 15:04:35;;;;;;;4.00;2.92;;;;;;;27.60;34.09;101169.28;6054075;29;20233;-76
2023/05/22 15:07:57;;;;;;;6.93;3.45;;;;;;;27.31;33.71;101176.59;6064557;29;20237;-73
2023/05/22 15:11:18;;;;;;;2.90;2.65;;;;;;;27.28;34.06;101173.47;6058212;29;20241;-72
2023/05/22 15:14:39;;;;;;;5.13;3.28;;;;;;;27.25;34.66;101163.69;6043263;29;20242;-73
2023/05/22 15:18:03;;;;;;;3.90;2.65;;;;;;;27.20;34.81;101160.81;6051017;29;20237;-73
2023/05/22 15:21:25;;;;;;;3.15;2.85;;;;;;;27.14;34.96;101166.47;6064068;29;20619;-72
2023/05/22 15:24:47;;;;;;;3.60;3.08;;;;;;;27.09;34.08;101169.06;6050112;29;20237;-73
2023/05/22 15:28:08;;;;;;;1.80;1.70;;;;;;;27.10;34.80;101170.78;6065606;29;20320;-74
2023/05/22 15:31:30;;;;;;;3.70;2.60;;;;;;;26.80;34.56;101177.19;6063887;29;20241;-73
2023/05/22 15:34:51;;;;;;;2.60;2.40;;;;;;;26.58;35.96;101228.53;6041469;29;20230;-73
2023/05/22 15:38:14;;;;;;;6.45;4.05;;;;;;;25.21;43.99;101208.59;6057444;29;20308;-71
2023/05/22 15:41:35;;;;;;;3.65;3.35;;;;;;;24.07;48.97;101217.84;6065350;29;20229;-72